sensor_id;sensor_type;location;lat;lon;timestamp;pressure;altitude;pressure_sealevel;temperature;humidity
51321;BME280;38732;49.556;6.286;2023-03-16T00:00:54;99959.00;;;4.62;78.63
51321;BME280;38732;49.556;6.286;2023-03-16T00:03:22;99952.22;;;4.62;78.51
51321;BME280;38732;49.556;6.286;2023-03-16T00:05:52;99955.06;;;4.71;77.73
51321;BME280;38732;49.556;6.286;2023-03-16T00:08:20;99954.31;;;4.48;76.91
51321;BME280;38732;49.556;6.286;2023-03-16T00:10:49;99959.19;;;4.41;77.68
51321;BME280;38732;49.556;6.286;2023-03-16T00:13:19;99962.84;;;4.49;79.34
51321;BME280;38732;49.556;6.286;2023-03-16T00:15:55;99970.78;;;4.57;78.54
51321;BME280;38732;49.556;6.286;2023-03-16T00:18:26;99967.41;;;4.58;78.33
51321;BME280;38732;49.556;6.286;2023-03-16T00:20:56;99961.22;;;4.51;77.75
51321;BME280;38732;49.556;6.286;2023-03-16T00:23:25;99970.06;;;4.61;78.65
51321;BME280;38732;49.556;6.286;2023-03-16T00:25:57;99967.56;;;4.62;77.09
51321;BME280;38732;49.556;6.286;2023-03-16T00:28:26;99963.06;;;4.55;77.13
51321;BME280;38732;49.556;6.286;2023-03-16T00:30:54;99957.56;;;4.43;77.13
51321;BME280;38732;49.556;6.286;2023-03-16T00:33:23;99959.09;;;4.38;77.47
51321;BME280;38732;49.556;6.286;2023-03-16T00:35:52;99965.66;;;4.29;77.32
51321;BME280;38732;49.556;6.286;2023-03-16T00:38:20;99967.31;;;4.29;78.38
51321;BME280;38732;49.556;6.286;2023-03-16T00:40:48;99956.50;;;4.36;80.82
51321;BME280;38732;49.556;6.286;2023-03-16T00:43:16;99957.94;;;4.28;77.74
51321;BME280;38732;49.556;6.286;2023-03-16T00:45:45;99956.44;;;4.35;79.51
51321;BME280;38732;49.556;6.286;2023-03-16T00:48:13;99956.44;;;4.35;80.05
51321;BME280;38732;49.556;6.286;2023-03-16T00:50:41;99943.25;;;4.48;80.14
51321;BME280;38732;49.556;6.286;2023-03-16T00:53:09;99948.25;;;4.45;79.49
51321;BME280;38732;49.556;6.286;2023-03-16T00:55:38;99938.59;;;4.36;78.67
51321;BME280;38732;49.556;6.286;2023-03-16T00:58:06;99938.03;;;4.45;78.62
51321;BME280;38732;49.556;6.286;2023-03-16T01:00:34;99932.78;;;4.40;78.19
51321;BME280;38732;49.556;6.286;2023-03-16T01:03:02;99931.91;;;4.40;77.36
51321;BME280;38732;49.556;6.286;2023-03-16T01:05:30;99930.31;;;4.43;77.08
51321;BME280;38732;49.556;6.286;2023-03-16T01:07:59;99936.78;;;4.32;77.41
51321;BME280;38732;49.556;6.286;2023-03-16T01:10:27;99927.41;;;4.32;77.42
51321;BME280;38732;49.556;6.286;2023-03-16T01:12:55;99936.56;;;4.26;78.38
51321;BME280;38732;49.556;6.286;2023-03-16T01:15:23;99941.34;;;4.17;77.32
51321;BME280;38732;49.556;6.286;2023-03-16T01:17:51;99947.38;;;4.19;77.98
51321;BME280;38732;49.556;6.286;2023-03-16T01:20:20;99941.16;;;4.10;78.22
51321;BME280;38732;49.556;6.286;2023-03-16T01:22:48;99949.19;;;4.21;80.09
51321;BME280;38732;49.556;6.286;2023-03-16T01:25:16;99938.94;;;4.20;78.51
51321;BME280;38732;49.556;6.286;2023-03-16T01:27:45;99941.22;;;4.12;78.56
51321;BME280;38732;49.556;6.286;2023-03-16T01:30:13;99938.81;;;4.17;81.65
51321;BME280;38732;49.556;6.286;2023-03-16T01:32:41;99936.34;;;3.94;79.95
51321;BME280;38732;49.556;6.286;2023-03-16T01:35:09;99935.53;;;4.21;81.91
51321;BME280;38732;49.556;6.286;2023-03-16T01:37:37;99930.34;;;4.18;81.04
51321;BME280;38732;49.556;6.286;2023-03-16T01:40:06;99931.28;;;4.21;79.16
51321;BME280;38732;49.556;6.286;2023-03-16T01:42:43;99918.88;;;4.32;80.05
51321;BME280;38732;49.556;6.286;2023-03-16T01:48:23;99913.34;;;4.45;82.10
51321;BME280;38732;49.556;6.286;2023-03-16T01:50:53;99906.66;;;4.50;80.46
51321;BME280;38732;49.556;6.286;2023-03-16T01:53:23;99915.28;;;4.54;81.03
51321;BME280;38732;49.556;6.286;2023-03-16T01:55:52;99906.81;;;4.55;79.62
51321;BME280;38732;49.556;6.286;2023-03-16T01:58:20;99908.41;;;4.51;79.66
51321;BME280;38732;49.556;6.286;2023-03-16T02:00:48;99905.31;;;4.62;80.25
51321;BME280;38732;49.556;6.286;2023-03-16T02:03:18;99898.66;;;4.67;79.81
51321;BME280;38732;49.556;6.286;2023-03-16T02:05:49;99904.56;;;4.64;79.97
51321;BME280;38732;49.556;6.286;2023-03-16T02:08:20;99894.91;;;4.56;78.80
51321;BME280;38732;49.556;6.286;2023-03-16T02:10:49;99893.41;;;4.62;79.70
51321;BME280;38732;49.556;6.286;2023-03-16T02:13:17;99881.81;;;4.46;78.81
51321;BME280;38732;49.556;6.286;2023-03-16T02:15:46;99884.44;;;4.48;79.10
51321;BME280;38732;49.556;6.286;2023-03-16T02:18:14;99885.97;;;4.43;79.52
51321;BME280;38732;49.556;6.286;2023-03-16T02:20:50;99873.19;;;4.43;80.22
51321;BME280;38732;49.556;6.286;2023-03-16T02:23:23;99871.75;;;4.51;80.53
51321;BME280;38732;49.556;6.286;2023-03-16T02:28:56;99858.19;;;4.53;79.96
51321;BME280;38732;49.556;6.286;2023-03-16T02:31:27;99852.91;;;4.49;80.49
51321;BME280;38732;49.556;6.286;2023-03-16T02:33:57;99858.25;;;4.57;80.53
51321;BME280;38732;49.556;6.286;2023-03-16T02:36:26;99851.66;;;4.63;81.29
51321;BME280;38732;49.556;6.286;2023-03-16T02:38:55;99842.19;;;4.61;80.57
51321;BME280;38732;49.556;6.286;2023-03-16T02:41:23;99850.78;;;4.63;80.41
51321;BME280;38732;49.556;6.286;2023-03-16T02:43:57;99839.88;;;4.68;80.43
51321;BME280;38732;49.556;6.286;2023-03-16T02:46:28;99843.97;;;4.63;79.69
51321;BME280;38732;49.556;6.286;2023-03-16T02:49:02;99847.47;;;4.65;80.78
51321;BME280;38732;49.556;6.286;2023-03-16T02:51:32;99846.59;;;4.65;80.46
51321;BME280;38732;49.556;6.286;2023-03-16T02:54:00;99835.59;;;4.67;80.20
51321;BME280;38732;49.556;6.286;2023-03-16T02:56:28;99827.22;;;4.73;80.02
51321;BME280;38732;49.556;6.286;2023-03-16T02:58:56;99834.19;;;4.77;80.34
51321;BME280;38732;49.556;6.286;2023-03-16T03:01:24;99831.63;;;4.77;81.06
51321;BME280;38732;49.556;6.286;2023-03-16T03:03:53;99819.81;;;4.82;81.33
51321;BME280;38732;49.556;6.286;2023-03-16T03:06:21;99824.94;;;4.82;80.43
51321;BME280;38732;49.556;6.286;2023-03-16T03:08:49;99815.72;;;4.89;80.87
51321;BME280;38732;49.556;6.286;2023-03-16T03:11:18;99820.91;;;4.90;81.04
51321;BME280;38732;49.556;6.286;2023-03-16T03:13:46;99819.41;;;4.97;80.50
51321;BME280;38732;49.556;6.286;2023-03-16T03:16:14;99821.16;;;5.00;79.43
51321;BME280;38732;49.556;6.286;2023-03-16T03:18:42;99815.88;;;4.93;80.70
51321;BME280;38732;49.556;6.286;2023-03-16T03:21:11;99812.72;;;5.02;82.33
51321;BME280;38732;49.556;6.286;2023-03-16T03:23:39;99816.22;;;5.06;81.24
51321;BME280;38732;49.556;6.286;2023-03-16T03:26:07;99810.38;;;5.11;82.43
51321;BME280;38732;49.556;6.286;2023-03-16T03:28:35;99812.41;;;5.23;80.43
51321;BME280;38732;49.556;6.286;2023-03-16T03:31:04;99814.16;;;5.24;81.56
51321;BME280;38732;49.556;6.286;2023-03-16T03:33:32;99808.16;;;5.24;80.15
51321;BME280;38732;49.556;6.286;2023-03-16T03:36:00;99809.91;;;5.25;80.97
51321;BME280;38732;49.556;6.286;2023-03-16T03:38:28;99800.88;;;5.39;80.12
51321;BME280;38732;49.556;6.286;2023-03-16T03:40:57;99805.06;;;5.35;78.82
51321;BME280;38732;49.556;6.286;2023-03-16T03:43:25;99794.44;;;5.20;79.60
51321;BME280;38732;49.556;6.286;2023-03-16T03:45:57;99796.81;;;5.14;80.69
51321;BME280;38732;49.556;6.286;2023-03-16T03:48:26;99791.69;;;5.14;80.78
51321;BME280;38732;49.556;6.286;2023-03-16T03:50:54;99791.13;;;5.24;80.56
51321;BME280;38732;49.556;6.286;2023-03-16T03:53:22;99797.38;;;5.35;80.14
51321;BME280;38732;49.556;6.286;2023-03-16T03:55:51;99789.47;;;5.26;80.79
51321;BME280;38732;49.556;6.286;2023-03-16T03:58:19;99791.00;;;5.19;81.37
51321;BME280;38732;49.556;6.286;2023-03-16T04:00:47;99789.97;;;5.13;80.69
51321;BME280;38732;49.556;6.286;2023-03-16T04:03:15;99785.00;;;5.19;81.01
51321;BME280;38732;49.556;6.286;2023-03-16T04:05:43;99785.09;;;5.22;80.80
51321;BME280;38732;49.556;6.286;2023-03-16T04:08:12;99784.34;;;5.26;80.31
51321;BME280;38732;49.556;6.286;2023-03-16T04:10:40;99784.34;;;5.26;81.33
51321;BME280;38732;49.556;6.286;2023-03-16T04:13:08;99780.06;;;5.25;81.04
51321;BME280;38732;49.556;6.286;2023-03-16T04:15:36;99780.91;;;5.24;80.77
51321;BME280;38732;49.556;6.286;2023-03-16T04:18:05;99778.34;;;5.26;80.79
51321;BME280;38732;49.556;6.286;2023-03-16T04:20:33;99773.41;;;5.32;80.22
51321;BME280;38732;49.556;6.286;2023-03-16T04:23:01;99772.63;;;5.34;80.93
51321;BME280;38732;49.556;6.286;2023-03-16T04:25:30;99770.16;;;5.39;81.84
51321;BME280;38732;49.556;6.286;2023-03-16T04:27:58;99772.78;;;5.40;81.50
51321;BME280;38732;49.556;6.286;2023-03-16T04:30:26;99767.91;;;5.51;83.05
51321;BME280;38732;49.556;6.286;2023-03-16T04:32:54;99768.75;;;5.50;82.13
51321;BME280;38732;49.556;6.286;2023-03-16T04:35:23;99761.19;;;5.55;81.91
51321;BME280;38732;49.556;6.286;2023-03-16T04:37:51;99771.25;;;5.47;82.53
51321;BME280;38732;49.556;6.286;2023-03-16T04:40:19;99761.91;;;5.49;82.67
51321;BME280;38732;49.556;6.286;2023-03-16T04:42:47;99756.09;;;5.56;82.48
51321;BME280;38732;49.556;6.286;2023-03-16T04:45:16;99758.63;;;5.55;81.83
51321;BME280;38732;49.556;6.286;2023-03-16T04:47:44;99760.34;;;5.56;82.63
51321;BME280;38732;49.556;6.286;2023-03-16T04:50:12;99756.00;;;5.52;81.73
51321;BME280;38732;49.556;6.286;2023-03-16T04:52:40;99756.19;;;5.61;82.91
51321;BME280;38732;49.556;6.286;2023-03-16T04:55:09;99756.31;;;5.66;82.27
51321;BME280;38732;49.556;6.286;2023-03-16T04:57:37;99756.88;;;5.54;82.51
51321;BME280;38732;49.556;6.286;2023-03-16T05:00:06;99748.56;;;5.62;82.19
51321;BME280;38732;49.556;6.286;2023-03-16T05:02:34;99747.84;;;5.68;82.75
51321;BME280;38732;49.556;6.286;2023-03-16T05:05:04;99753.94;;;5.73;82.45
51321;BME280;38732;49.556;6.286;2023-03-16T05:07:32;99754.00;;;5.76;82.75
51321;BME280;38732;49.556;6.286;2023-03-16T05:10:00;99747.03;;;5.69;81.49
51321;BME280;38732;49.556;6.286;2023-03-16T05:12:29;99745.03;;;5.59;81.65
51321;BME280;38732;49.556;6.286;2023-03-16T05:14:57;99746.81;;;5.61;81.75
51321;BME280;38732;49.556;6.286;2023-03-16T05:17:25;99751.13;;;5.62;82.62
51321;BME280;38732;49.556;6.286;2023-03-16T05:19:53;99752.22;;;5.72;83.50
51321;BME280;38732;49.556;6.286;2023-03-16T05:22:21;99745.28;;;5.68;84.73
51321;BME280;38732;49.556;6.286;2023-03-16T05:24:50;99754.66;;;5.68;83.44
51321;BME280;38732;49.556;6.286;2023-03-16T05:27:18;99759.06;;;5.73;83.93
51321;BME280;38732;49.556;6.286;2023-03-16T05:29:46;99761.00;;;5.82;83.25
51321;BME280;38732;49.556;6.286;2023-03-16T05:32:15;99753.94;;;5.73;83.55
51321;BME280;38732;49.556;6.286;2023-03-16T05:34:43;99753.00;;;5.70;83.11
51321;BME280;38732;49.556;6.286;2023-03-16T05:37:11;99749.72;;;5.75;82.85
51321;BME280;38732;49.556;6.286;2023-03-16T05:39:39;99747.28;;;5.80;82.08
51321;BME280;38732;49.556;6.286;2023-03-16T05:42:08;99751.50;;;5.78;82.15
51321;BME280;38732;49.556;6.286;2023-03-16T05:44:36;99747.91;;;5.71;82.27
51321;BME280;38732;49.556;6.286;2023-03-16T05:47:04;99744.47;;;5.71;82.43
51321;BME280;38732;49.556;6.286;2023-03-16T05:49:32;99745.34;;;5.71;82.69
51321;BME280;38732;49.556;6.286;2023-03-16T05:52:00;99742.94;;;5.77;82.42
51321;BME280;38732;49.556;6.286;2023-03-16T05:54:29;99739.34;;;5.71;82.75
51321;BME280;38732;49.556;6.286;2023-03-16T05:56:57;99736.16;;;5.79;83.06
51321;BME280;38732;49.556;6.286;2023-03-16T05:59:25;99738.56;;;5.73;83.97
51321;BME280;38732;49.556;6.286;2023-03-16T06:01:53;99731.97;;;5.83;84.31
51321;BME280;38732;49.556;6.286;2023-03-16T06:04:21;99728.44;;;5.78;83.22
51321;BME280;38732;49.556;6.286;2023-03-16T06:06:50;99735.19;;;5.74;82.80
51321;BME280;38732;49.556;6.286;2023-03-16T06:09:18;99740.34;;;5.76;82.78
51321;BME280;38732;49.556;6.286;2023-03-16T06:11:46;99749.00;;;5.81;83.79
51321;BME280;38732;49.556;6.286;2023-03-16T06:14:14;99744.66;;;5.78;84.15
51321;BME280;38732;49.556;6.286;2023-03-16T06:16:42;99748.19;;;5.82;83.46
51321;BME280;38732;49.556;6.286;2023-03-16T06:19:11;99749.00;;;5.81;83.71
51321;BME280;38732;49.556;6.286;2023-03-16T06:21:39;99755.31;;;5.94;85.57
51321;BME280;38732;49.556;6.286;2023-03-16T06:24:07;99764.06;;;6.03;83.58
51321;BME280;38732;49.556;6.286;2023-03-16T06:26:36;99767.53;;;6.05;83.83
51321;BME280;38732;49.556;6.286;2023-03-16T06:29:05;99759.22;;;6.14;83.28
51321;BME280;38732;49.556;6.286;2023-03-16T06:31:33;99754.16;;;6.19;83.67
51321;BME280;38732;49.556;6.286;2023-03-16T06:34:02;99763.88;;;6.34;83.52
51321;BME280;38732;49.556;6.286;2023-03-16T06:36:30;99764.78;;;6.34;83.58
51321;BME280;38732;49.556;6.286;2023-03-16T06:38:58;99759.53;;;6.30;86.51
51321;BME280;38732;49.556;6.286;2023-03-16T06:41:26;99758.56;;;6.65;83.31
51321;BME280;38732;49.556;6.286;2023-03-16T06:43:54;99752.78;;;6.74;82.91
51321;BME280;38732;49.556;6.286;2023-03-16T06:46:23;99757.50;;;6.98;81.73
51321;BME280;38732;49.556;6.286;2023-03-16T06:48:51;99747.69;;;7.23;79.89
51321;BME280;38732;49.556;6.286;2023-03-16T06:51:19;99744.56;;;7.39;79.22
51321;BME280;38732;49.556;6.286;2023-03-16T06:53:47;99754.84;;;7.39;77.79
51321;BME280;38732;49.556;6.286;2023-03-16T06:56:15;99752.50;;;7.51;76.74
51321;BME280;38732;49.556;6.286;2023-03-16T06:58:44;99741.59;;;7.66;76.39
51321;BME280;38732;49.556;6.286;2023-03-16T07:01:15;99745.97;;;7.72;75.19
51321;BME280;38732;49.556;6.286;2023-03-16T07:03:43;99750.44;;;7.85;74.07
51321;BME280;38732;49.556;6.286;2023-03-16T07:06:11;99747.09;;;7.89;73.86
51321;BME280;38732;49.556;6.286;2023-03-16T07:08:39;99753.16;;;7.96;73.34
51321;BME280;38732;49.556;6.286;2023-03-16T07:11:08;99743.84;;;8.03;73.56
51321;BME280;38732;49.556;6.286;2023-03-16T07:13:37;99750.84;;;8.11;72.49
51321;BME280;38732;49.556;6.286;2023-03-16T07:16:05;99745.72;;;8.11;73.64
51321;BME280;38732;49.556;6.286;2023-03-16T07:18:34;99750.19;;;8.26;71.96
51321;BME280;38732;49.556;6.286;2023-03-16T07:21:02;99752.69;;;8.20;72.98
51321;BME280;38732;49.556;6.286;2023-03-16T07:23:30;99746.88;;;8.35;72.98
51321;BME280;38732;49.556;6.286;2023-03-16T07:25:59;99751.28;;;8.40;72.41
51321;BME280;38732;49.556;6.286;2023-03-16T07:28:27;99749.66;;;8.47;72.55
51321;BME280;38732;49.556;6.286;2023-03-16T07:30:55;99754.03;;;8.54;71.30
51321;BME280;38732;49.556;6.286;2023-03-16T07:33:23;99755.06;;;8.67;72.18
51321;BME280;38732;49.556;6.286;2023-03-16T07:35:51;99764.59;;;8.74;71.82
51321;BME280;38732;49.556;6.286;2023-03-16T07:38:20;99762.63;;;8.55;72.29
51321;BME280;38732;49.556;6.286;2023-03-16T07:40:48;99758.38;;;8.60;70.72
51321;BME280;38732;49.556;6.286;2023-03-16T07:43:17;99750.94;;;8.81;69.74
51321;BME280;38732;49.556;6.286;2023-03-16T07:45:49;99744.88;;;8.76;70.72
51321;BME280;38732;49.556;6.286;2023-03-16T07:48:19;99747.53;;;8.84;70.17
51321;BME280;38732;49.556;6.286;2023-03-16T07:50:48;99746.66;;;8.83;70.94
51321;BME280;38732;49.556;6.286;2023-03-16T07:53:16;99742.22;;;8.70;71.27
51321;BME280;38732;49.556;6.286;2023-03-16T07:55:45;99737.09;;;8.72;71.49
51321;BME280;38732;49.556;6.286;2023-03-16T07:58:13;99744.78;;;8.69;71.27
51321;BME280;38732;49.556;6.286;2023-03-16T08:00:41;99739.63;;;8.70;70.34
51321;BME280;38732;49.556;6.286;2023-03-16T08:03:10;99741.50;;;8.83;70.73
51321;BME280;38732;49.556;6.286;2023-03-16T08:05:38;99727.78;;;8.86;71.28
51321;BME280;38732;49.556;6.286;2023-03-16T08:08:06;99728.63;;;8.83;71.82
51321;BME280;38732;49.556;6.286;2023-03-16T08:10:34;99724.34;;;8.85;70.54
51321;BME280;38732;49.556;6.286;2023-03-16T08:13:03;99732.09;;;8.84;69.50
51321;BME280;38732;49.556;6.286;2023-03-16T08:15:31;99734.72;;;8.90;68.86
51321;BME280;38732;49.556;6.286;2023-03-16T08:18:00;99733.84;;;8.90;68.97
51321;BME280;38732;49.556;6.286;2023-03-16T08:20:28;99738.22;;;8.94;66.63
51321;BME280;38732;49.556;6.286;2023-03-16T08:22:56;99736.50;;;8.94;68.13
51321;BME280;38732;49.556;6.286;2023-03-16T08:25:25;99730.59;;;9.07;68.05
51321;BME280;38732;49.556;6.286;2023-03-16T08:27:53;99728.50;;;8.71;69.35
51321;BME280;38732;49.556;6.286;2023-03-16T08:30:21;99739.97;;;8.99;68.32
51321;BME280;38732;49.556;6.286;2023-03-16T08:32:49;99735.16;;;9.35;66.68
51321;BME280;38732;49.556;6.286;2023-03-16T08:35:17;99732.69;;;9.44;66.61
51321;BME280;38732;49.556;6.286;2023-03-16T08:37:46;99737.84;;;9.45;66.29
51321;BME280;38732;49.556;6.286;2023-03-16T08:40:14;99733.72;;;9.64;65.11
51321;BME280;38732;49.556;6.286;2023-03-16T08:42:42;99733.75;;;9.69;65.10
51321;BME280;38732;49.556;6.286;2023-03-16T08:45:10;99731.34;;;9.95;63.67
51321;BME280;38732;49.556;6.286;2023-03-16T08:47:39;99722.72;;;9.90;62.53
51321;BME280;38732;49.556;6.286;2023-03-16T08:50:09;99725.34;;;9.98;64.44
51321;BME280;38732;49.556;6.286;2023-03-16T08:52:38;99714.97;;;9.87;62.15
51321;BME280;38732;49.556;6.286;2023-03-16T08:55:07;99721.06;;;9.97;62.46
51321;BME280;38732;49.556;6.286;2023-03-16T08:57:36;99716.97;;;10.35;62.27
51321;BME280;38732;49.556;6.286;2023-03-16T09:00:04;99708.69;;;9.53;62.88
51321;BME280;38732;49.556;6.286;2023-03-16T09:02:33;99707.53;;;10.38;62.52
51321;BME280;38732;49.556;6.286;2023-03-16T09:05:01;99697.31;;;10.62;62.06
51321;BME280;38732;49.556;6.286;2023-03-16T09:07:29;99698.28;;;11.04;59.44
51321;BME280;38732;49.556;6.286;2023-03-16T09:09:57;99689.66;;;10.94;59.28
51321;BME280;38732;49.556;6.286;2023-03-16T09:12:25;99687.06;;;11.00;58.11
51321;BME280;38732;49.556;6.286;2023-03-16T09:14:54;99692.28;;;11.16;58.17
51321;BME280;38732;49.556;6.286;2023-03-16T09:17:22;99699.19;;;11.32;55.63
51321;BME280;38732;49.556;6.286;2023-03-16T09:19:50;99703.50;;;11.35;57.87
51321;BME280;38732;49.556;6.286;2023-03-16T09:22:19;99695.75;;;11.47;57.33
51321;BME280;38732;49.556;6.286;2023-03-16T09:24:48;99705.22;;;11.19;58.03
51321;BME280;38732;49.556;6.286;2023-03-16T09:27:16;99692.31;;;11.31;58.09
51321;BME280;38732;49.556;6.286;2023-03-16T09:29:45;99691.41;;;11.48;55.83
51321;BME280;38732;49.556;6.286;2023-03-16T09:32:13;99675.91;;;11.68;57.44
51321;BME280;38732;49.556;6.286;2023-03-16T09:34:42;99678.50;;;11.58;56.33
51321;BME280;38732;49.556;6.286;2023-03-16T09:37:10;99686.25;;;11.77;54.59
51321;BME280;38732;49.556;6.286;2023-03-16T09:39:38;99685.38;;;11.95;54.79
51321;BME280;38732;49.556;6.286;2023-03-16T09:42:34;99683.66;;;11.89;56.87
51321;BME280;38732;49.556;6.286;2023-03-16T09:47:33;99678.31;;;12.40;54.53
51321;BME280;38732;49.556;6.286;2023-03-16T09:50:05;99674.06;;;12.26;54.64
51321;BME280;38732;49.556;6.286;2023-03-16T09:55:26;99688.59;;;12.60;54.29
51321;BME280;38732;49.556;6.286;2023-03-16T09:57:56;99684.19;;;12.80;50.56
51321;BME280;38732;49.556;6.286;2023-03-16T10:00:29;99670.56;;;12.46;52.53
51321;BME280;38732;49.556;6.286;2023-03-16T10:05:51;99664.22;;;12.94;52.50
51321;BME280;38732;49.556;6.286;2023-03-16T10:08:31;99652.72;;;13.37;50.87
51321;BME280;38732;49.556;6.286;2023-03-16T10:11:17;99673.16;;;12.46;50.57
51321;BME280;38732;49.556;6.286;2023-03-16T10:14:13;99651.88;;;13.32;49.36
51321;BME280;38732;49.556;6.286;2023-03-16T10:16:58;99647.28;;;13.66;47.52
51321;BME280;38732;49.556;6.286;2023-03-16T10:19:38;99650.75;;;13.64;53.38
51321;BME280;38732;49.556;6.286;2023-03-16T10:22:28;99649.50;;;14.01;51.08
51321;BME280;38732;49.556;6.286;2023-03-16T10:25:11;99640.72;;;14.12;48.57
51321;BME280;38732;49.556;6.286;2023-03-16T10:27:44;99650.50;;;13.87;50.38
51321;BME280;38732;49.556;6.286;2023-03-16T10:30:27;99647.38;;;14.36;49.79
51321;BME280;38732;49.556;6.286;2023-03-16T10:33:02;99638.50;;;14.55;46.87
51321;BME280;38732;49.556;6.286;2023-03-16T10:35:39;99644.41;;;14.65;47.94
51321;BME280;38732;49.556;6.286;2023-03-16T10:38:08;99628.78;;;14.68;45.33
51321;BME280;38732;49.556;6.286;2023-03-16T10:40:53;99635.63;;;14.75;43.65
51321;BME280;38732;49.556;6.286;2023-03-16T10:43:21;99627.66;;;14.84;44.58
51321;BME280;38732;49.556;6.286;2023-03-16T10:45:49;99627.25;;;14.53;45.91
51321;BME280;38732;49.556;6.286;2023-03-16T10:48:19;99626.34;;;14.56;46.91
51321;BME280;38732;49.556;6.286;2023-03-16T10:50:50;99629.22;;;14.98;45.78
51321;BME280;38732;49.556;6.286;2023-03-16T10:53:22;99611.53;;;15.18;42.79
51321;BME280;38732;49.556;6.286;2023-03-16T10:56:00;99615.44;;;15.44;44.04
51321;BME280;38732;49.556;6.286;2023-03-16T10:58:31;99613.09;;;15.28;47.37
51321;BME280;38732;49.556;6.286;2023-03-16T11:00:59;99618.47;;;15.70;43.12
51321;BME280;38732;49.556;6.286;2023-03-16T11:03:30;99618.66;;;15.58;42.87
51321;BME280;38732;49.556;6.286;2023-03-16T11:06:03;99618.41;;;15.73;41.46
51321;BME280;38732;49.556;6.286;2023-03-16T11:08:38;99623.31;;;14.85;44.11
51321;BME280;38732;49.556;6.286;2023-03-16T11:11:14;99622.00;;;14.58;43.36
51321;BME280;38732;49.556;6.286;2023-03-16T11:13:47;99610.84;;;14.45;42.08
51321;BME280;38732;49.556;6.286;2023-03-16T11:24:37;99586.88;;;16.31;41.00
51321;BME280;38732;49.556;6.286;2023-03-16T11:30:03;99587.63;;;16.36;38.99
51321;BME280;38732;49.556;6.286;2023-03-16T11:32:37;99582.09;;;16.50;39.88
51321;BME280;38732;49.556;6.286;2023-03-16T11:35:17;99574.28;;;16.50;43.07
51321;BME280;38732;49.556;6.286;2023-03-16T11:38:08;99568.47;;;16.77;41.02
51321;BME280;38732;49.556;6.286;2023-03-16T11:40:52;99567.25;;;16.92;37.84
51321;BME280;38732;49.556;6.286;2023-03-16T11:43:39;99569.00;;;16.14;39.19
51321;BME280;38732;49.556;6.286;2023-03-16T11:46:28;99568.50;;;16.74;38.44
51321;BME280;38732;49.556;6.286;2023-03-16T11:52:05;99553.94;;;18.01;36.55
51321;BME280;38732;49.556;6.286;2023-03-16T12:06:00;99533.38;;;20.47;33.69
51321;BME280;38732;49.556;6.286;2023-03-16T12:11:13;99527.06;;;21.37;32.92
51321;BME280;38732;49.556;6.286;2023-03-16T12:16:34;99522.03;;;22.66;29.63
51321;BME280;38732;49.556;6.286;2023-03-16T12:19:15;99512.13;;;23.25;26.89
51321;BME280;38732;49.556;6.286;2023-03-16T12:21:47;99507.28;;;22.81;26.70
51321;BME280;38732;49.556;6.286;2023-03-16T12:24:24;99507.16;;;22.10;29.13
51321;BME280;38732;49.556;6.286;2023-03-16T12:26:55;99500.56;;;22.39;28.44
51321;BME280;38732;49.556;6.286;2023-03-16T12:29:35;99495.03;;;23.50;25.64
51321;BME280;38732;49.556;6.286;2023-03-16T12:32:13;99491.00;;;23.42;26.80
51321;BME280;38732;49.556;6.286;2023-03-16T12:34:53;99501.38;;;23.79;26.99
51321;BME280;38732;49.556;6.286;2023-03-16T12:38:07;99493.25;;;24.15;25.71
51321;BME280;38732;49.556;6.286;2023-03-16T12:40:21;99485.34;;;22.99;27.36
51321;BME280;38732;49.556;6.286;2023-03-16T12:45:58;99478.59;;;22.21;27.90
51321;BME280;38732;49.556;6.286;2023-03-16T12:48:36;99474.09;;;20.86;29.79
51321;BME280;38732;49.556;6.286;2023-03-16T12:51:05;99457.34;;;21.50;28.48
51321;BME280;38732;49.556;6.286;2023-03-16T12:53:53;99468.84;;;21.06;29.53
51321;BME280;38732;49.556;6.286;2023-03-16T12:56:31;99465.44;;;21.04;32.20
51321;BME280;38732;49.556;6.286;2023-03-16T12:59:02;99463.91;;;20.99;31.24
51321;BME280;38732;49.556;6.286;2023-03-16T13:01:37;99458.91;;;19.60;31.74
51321;BME280;38732;49.556;6.286;2023-03-16T13:04:11;99445.53;;;20.58;28.75
51321;BME280;38732;49.556;6.286;2023-03-16T13:06:44;99441.59;;;20.46;30.95
51321;BME280;38732;49.556;6.286;2023-03-16T13:09:21;99447.50;;;19.61;32.43
51321;BME280;38732;49.556;6.286;2023-03-16T13:11:51;99443.72;;;19.22;31.89
51321;BME280;38732;49.556;6.286;2023-03-16T13:19:57;99443.84;;;19.18;30.95
51321;BME280;38732;49.556;6.286;2023-03-16T13:22:40;99438.06;;;18.84;33.25
51321;BME280;38732;49.556;6.286;2023-03-16T13:25:21;99434.19;;;18.95;33.98
51321;BME280;38732;49.556;6.286;2023-03-16T13:27:54;99427.09;;;19.71;30.82
51321;BME280;38732;49.556;6.286;2023-03-16T13:30:33;99420.53;;;20.05;30.15
51321;BME280;38732;49.556;6.286;2023-03-16T13:33:16;99421.44;;;20.26;31.22
51321;BME280;38732;49.556;6.286;2023-03-16T13:35:51;99420.28;;;20.33;31.51
51321;BME280;38732;49.556;6.286;2023-03-16T13:38:21;99421.03;;;19.93;31.44
51321;BME280;38732;49.556;6.286;2023-03-16T13:40:53;99413.16;;;19.93;32.21
51321;BME280;38732;49.556;6.286;2023-03-16T13:43:25;99415.53;;;19.77;30.73
51321;BME280;38732;49.556;6.286;2023-03-16T13:45:54;99402.03;;;20.10;30.72
51321;BME280;38732;49.556;6.286;2023-03-16T13:48:23;99402.88;;;20.53;29.32
51321;BME280;38732;49.556;6.286;2023-03-16T13:50:55;99406.06;;;20.61;31.32
51321;BME280;38732;49.556;6.286;2023-03-16T13:53:27;99394.81;;;20.98;30.51
51321;BME280;38732;49.556;6.286;2023-03-16T13:55:57;99396.63;;;20.77;28.72
51321;BME280;38732;49.556;6.286;2023-03-16T13:58:34;99394.69;;;21.01;30.42
51321;BME280;38732;49.556;6.286;2023-03-16T14:01:17;99395.88;;;20.94;30.29
51321;BME280;38732;49.556;6.286;2023-03-16T14:03:48;99391.59;;;21.12;30.55
51321;BME280;38732;49.556;6.286;2023-03-16T14:06:22;99383.97;;;21.83;28.94
51321;BME280;38732;49.556;6.286;2023-03-16T14:08:54;99379.16;;;22.10;29.18
51321;BME280;38732;49.556;6.286;2023-03-16T14:11:25;99377.44;;;22.28;26.35
51321;BME280;38732;49.556;6.286;2023-03-16T14:13:56;99377.44;;;21.35;29.41
51321;BME280;38732;49.556;6.286;2023-03-16T14:16:27;99368.59;;;21.93;29.57
51321;BME280;38732;49.556;6.286;2023-03-16T14:19:02;99365.44;;;22.04;28.53